Time;durP1;ratioP1;P1;durP2;ratioP2;P2;SDS_P1;SDS_P2;PMS_P1;PMS_P2;Temp;Humidity;BMP_temperature;BMP_pressure;BME280_temperature;BME280_humidity;BME280_pressure;Samples;Min_cycle;Max_cycle;Signal;HPM_P1;HPM_P2
2023/01/01 00:01:29;;;;;;;105.88;35.72;;;13.50;99.90;;;;;;5073718;28;20041;-73
2023/01/01 00:03:57;;;;;;;69.93;26.13;;;13.40;99.90;;;;;;5071659;28;20044;-73
2023/01/01 00:06:24;;;;;;;71.05;26.83;;;13.50;99.90;;;;;;5055435;28;20052;-75
2023/01/01 00:10:26;;;;;;;71.35;28.13;;;13.40;99.90;;;;;;5071507;28;20047;-75
2023/01/01 00:11:38;;;;;;;72.30;27.30;;;13.40;99.90;;;;;;5072412;28;20050;-72
2023/01/01 00:14:04;;;;;;;81.82;27.55;;;13.40;99.90;;;;;;5071902;28;20131;-73
2023/01/01 00:16:29;;;;;;;72.32;28.10;;;13.50;99.90;;;;;;5072784;28;20087;-73
2023/01/01 00:18:55;;;;;;;93.03;32.97;;;13.50;99.90;;;;;;5089238;28;20533;-76
2023/01/01 00:21:21;;;;;;;78.75;28.58;;;13.50;99.90;;;;;;5055356;28;20049;-73
2023/01/01 00:23:47;;;;;;;76.32;26.63;;;13.50;99.90;;;;;;5055897;28;20438;-73
2023/01/01 00:26:16;;;;;;;83.00;24.98;;;13.50;99.90;;;;;;5073007;28;20434;-74
2023/01/01 00:28:43;;;;;;;68.47;23.27;;;13.30;99.90;;;;;;5071751;28;20454;-74
2023/01/01 00:31:16;;;;;;;82.70;29.30;;;13.30;99.90;;;;;;5073133;28;20330;-74
2023/01/01 00:33:42;;;;;;;68.03;23.23;;;13.30;99.90;;;;;;5074968;28;20084;-73
2023/01/01 00:36:10;;;;;;;85.82;31.13;;;13.40;99.90;;;;;;5074989;28;20117;-72
2023/01/01 00:38:36;;;;;;;70.47;22.65;;;13.40;99.90;;;;;;5059145;28;20048;-73
2023/01/01 00:41:02;;;;;;;53.40;18.83;;;13.40;99.90;;;;;;5074823;28;20037;-73
2023/01/01 00:43:28;;;;;;;64.53;20.58;;;13.50;99.90;;;;;;5058654;28;20509;-72
2023/01/01 00:45:53;;;;;;;57.40;19.00;;;13.60;99.90;;;;;;5074978;28;20130;-73
2023/01/01 00:48:20;;;;;;;64.35;19.98;;;13.60;99.90;;;;;;5074791;28;20060;-73
2023/01/01 00:50:47;;;;;;;57.10;20.73;;;13.60;99.90;;;;;;5076749;28;20214;-73
2023/01/01 00:53:13;;;;;;;52.97;19.65;;;13.60;99.90;;;;;;5074584;28;20049;-74
2023/01/01 00:55:39;;;;;;;57.63;22.98;;;13.60;99.90;;;;;;5075970;28;20374;-72
2023/01/01 00:58:05;;;;;;;76.35;26.23;;;13.60;99.90;;;;;;5058180;28;20052;-73
2023/01/01 01:00:31;;;;;;;79.97;28.33;;;13.70;99.90;;;;;;5108769;28;20389;-72
2023/01/01 01:02:57;;;;;;;68.70;23.42;;;13.70;99.90;;;;;;5058123;28;20055;-73
2023/01/01 01:05:23;;;;;;;70.70;21.58;;;13.70;99.90;;;;;;5074493;28;20040;-72
2023/01/01 01:07:49;;;;;;;62.45;22.63;;;13.70;99.90;;;;;;5074755;28;20044;-73
2023/01/01 01:10:14;;;;;;;64.20;23.15;;;13.70;99.90;;;;;;5075604;28;20048;-73
2023/01/01 01:12:40;;;;;;;72.22;23.55;;;13.70;99.90;;;;;;5074760;28;20090;-73
2023/01/01 01:15:07;;;;;;;70.85;27.13;;;13.70;99.90;;;;;;5075835;28;20044;-74
2023/01/01 01:17:33;;;;;;;73.85;25.63;;;13.70;99.90;;;;;;5074967;28;20091;-74
2023/01/01 01:19:59;;;;;;;71.97;24.45;;;13.70;99.90;;;;;;5076236;28;20425;-73
2023/01/01 01:22:25;;;;;;;78.18;25.38;;;13.70;99.90;;;;;;5075108;28;20080;-75
2023/01/01 01:24:51;;;;;;;62.72;23.05;;;13.70;99.90;;;;;;5108142;28;20040;-73
2023/01/01 01:27:16;;;;;;;71.70;25.55;;;13.80;99.90;;;;;;5075369;28;20063;-72
2023/01/01 01:29:42;;;;;;;78.97;24.17;;;13.80;99.90;;;;;;5057769;28;20397;-73
2023/01/01 01:32:10;;;;;;;78.47;25.50;;;13.80;99.90;;;;;;5075221;28;20048;-73
2023/01/01 01:34:36;;;;;;;82.38;26.27;;;13.90;99.90;;;;;;5074263;28;20088;-73
2023/01/01 01:37:02;;;;;;;84.43;26.55;;;13.80;99.90;;;;;;5057714;28;20137;-73
2023/01/01 01:39:28;;;;;;;77.93;25.77;;;13.80;99.90;;;;;;5074938;28;20059;-73
2023/01/01 01:41:54;;;;;;;81.45;26.10;;;13.80;99.90;;;;;;5073859;28;20045;-75
2023/01/01 01:44:58;;;;;;;79.63;26.83;;;13.80;99.90;;;;;;5073971;28;20049;-73
2023/01/01 01:47:27;;;;;;;76.50;26.52;;;13.70;99.90;;;;;;5057593;28;20135;-74
2023/01/01 01:50:05;;;;;;;79.95;26.00;;;13.70;99.90;;;;;;5075457;28;20044;-73
2023/01/01 01:52:33;;;;;;;80.63;26.77;;;13.70;99.90;;;;;;5091307;28;20048;-72
2023/01/01 01:55:01;;;;;;;71.28;25.55;;;13.70;99.90;;;;;;5073164;28;20083;-74
2023/01/01 01:57:28;;;;;;;85.60;28.48;;;13.70;99.90;;;;;;5074729;28;20441;-73
2023/01/01 01:59:56;;;;;;;78.40;26.75;;;13.70;99.90;;;;;;5073328;28;20049;-72
2023/01/01 02:03:01;;;;;;;76.47;27.52;;;13.60;99.90;;;;;;5074618;28;20070;-73
2023/01/01 02:05:28;;;;;;;86.97;27.13;;;13.60;99.90;;;;;;5053706;28;20060;-73
2023/01/01 02:07:57;;;;;;;96.43;31.98;;;13.50;99.90;;;;;;5074577;28;20047;-74
2023/01/01 02:10:23;;;;;;;79.47;27.60;;;13.50;99.90;;;;;;5057099;28;20127;-73
2023/01/01 02:12:49;;;;;;;75.15;24.67;;;13.40;99.90;;;;;;5040131;28;20132;-72
2023/01/01 02:15:15;;;;;;;77.28;25.58;;;13.40;99.90;;;;;;5107189;28;20121;-73
2023/01/01 02:17:58;;;;;;;73.82;24.73;;;13.30;99.90;;;;;;5074240;28;20049;-72
2023/01/01 02:20:34;;;;;;;73.68;24.48;;;13.30;99.90;;;;;;5057441;28;20054;-72
2023/01/01 02:23:32;;;;;;;63.07;24.13;;;13.20;99.90;;;;;;5074175;28;20422;-74
2023/01/01 02:26:17;;;;;;;74.20;23.25;;;13.20;99.90;;;;;;5057319;28;20194;-74
2023/01/01 02:28:47;;;;;;;72.35;23.48;;;13.20;99.90;;;;;;5075002;28;20055;-72
2023/01/01 02:31:21;;;;;;;62.22;21.10;;;13.20;99.90;;;;;;5056767;28;20052;-73
2023/01/01 02:33:47;;;;;;;64.30;19.42;;;13.30;99.90;;;;;;5072982;28;20051;-74
2023/01/01 02:36:14;;;;;;;60.28;18.77;;;13.40;99.90;;;;;;5040120;28;20537;-74
2023/01/01 02:38:44;;;;;;;51.63;18.37;;;13.30;99.90;;;;;;5073071;28;20055;-74
2023/01/01 02:41:18;;;;;;;55.60;16.48;;;13.40;99.90;;;;;;5074444;28;20072;-73
2023/01/01 02:43:44;;;;;;;62.22;15.90;;;13.40;99.90;;;;;;5074699;28;20484;-73
2023/01/01 02:46:11;;;;;;;50.50;15.50;;;13.50;99.90;;;;;;5072810;28;20189;-73
2023/01/01 02:48:46;;;;;;;45.35;14.13;;;13.50;99.90;;;;;;5056917;28;20106;-73
2023/01/01 02:51:45;;;;;;;46.03;13.15;;;13.60;99.90;;;;;;5072469;28;20048;-73
2023/01/01 02:54:17;;;;;;;37.78;10.70;;;13.60;99.90;;;;;;5074012;28;20193;-73
2023/01/01 02:56:58;;;;;;;45.38;11.00;;;13.60;99.90;;;;;;5055638;28;20053;-73
2023/01/01 03:02:23;;;;;;;;;;;13.70;99.90;;;;;;5074540;28;20044;-74
2023/01/01 03:04:56;;;;;;;33.10;7.65;;;13.80;99.90;;;;;;5072632;28;19920;-73
2023/01/01 03:07:27;;;;;;;30.67;6.72;;;13.80;99.90;;;;;;5056633;28;20364;-75
2023/01/01 03:10:00;;;;;;;43.70;7.35;;;13.90;99.90;;;;;;5073546;28;20041;-73
2023/01/01 03:12:59;;;;;;;27.70;7.53;;;13.90;99.90;;;;;;5073053;28;20037;-74
2023/01/01 03:15:52;;;;;;;31.20;7.05;;;14.00;99.90;;;;;;5073481;28;20052;-73
2023/01/01 03:18:26;;;;;;;32.53;6.10;;;13.90;99.90;;;;;;5073030;28;20041;-73
2023/01/01 03:20:55;;;;;;;26.85;6.57;;;13.90;99.90;;;;;;5072784;28;20060;-73
2023/01/01 03:23:28;;;;;;;27.38;5.82;;;14.00;99.90;;;;;;5074032;28;20113;-73
2023/01/01 03:25:59;;;;;;;32.60;6.35;;;14.10;99.90;;;;;;5074221;28;20113;-73
2023/01/01 03:28:39;;;;;;;27.30;5.25;;;14.10;99.90;;;;;;5074122;28;20377;-73
2023/01/01 03:31:05;;;;;;;26.02;4.80;;;14.10;99.90;;;;;;5091061;28;20330;-73
2023/01/01 03:33:45;;;;;;;19.58;4.50;;;14.10;99.90;;;;;;5073676;28;20045;-73
2023/01/01 03:36:23;;;;;;;23.10;4.45;;;14.10;99.90;;;;;;5074048;28;20453;-73
2023/01/01 03:38:58;;;;;;;19.88;5.13;;;14.10;99.90;;;;;;5072372;28;20181;-74
2023/01/01 03:41:35;;;;;;;153.80;64.63;;;14.10;99.90;;;;;;5071972;28;20063;-74
2023/01/01 03:44:12;;;;;;;;;;;14.10;99.90;;;;;;5073244;28;20074;-73
2023/01/01 03:46:38;;;;;;;28.40;3.60;;;14.10;99.90;;;;;;5072089;28;20023;-73
2023/01/01 03:49:07;;;;;;;25.02;4.72;;;14.10;99.90;;;;;;5055391;28;20131;-74
2023/01/01 03:52:14;;;;;;;26.30;4.72;;;14.10;99.90;;;;;;5055206;28;20485;-74
2023/01/01 03:55:01;;;;;;;22.88;4.00;;;14.10;99.90;;;;;;5054352;28;20443;-73
2023/01/01 03:58:04;;;;;;;20.05;4.63;;;14.20;99.90;;;;;;5072854;28;20052;-73
2023/01/01 04:00:34;;;;;;;20.83;3.53;;;14.20;99.90;;;;;;5073150;28;20144;-74
2023/01/01 04:03:24;;;;;;;21.05;4.15;;;14.20;99.90;;;;;;5072004;28;20497;-74
2023/01/01 04:05:50;;;;;;;24.00;3.83;;;14.20;99.90;;;;;;5055220;28;20048;-73
2023/01/01 04:08:17;;;;;;;18.92;3.58;;;14.10;99.90;;;;;;5073872;28;20048;-72
2023/01/01 04:10:47;;;;;;;18.45;3.58;;;14.10;99.90;;;;;;5076081;28;20055;-73
2023/01/01 04:13:13;;;;;;;25.63;3.63;;;14.00;99.90;;;;;;5075327;28;20552;-72
2023/01/01 04:15:39;;;;;;;24.48;4.05;;;14.10;99.90;;;;;;5076681;28;20044;-73
2023/01/01 04:18:05;;;;;;;18.13;3.13;;;14.10;99.90;;;;;;5075622;28;20036;-72
2023/01/01 04:20:30;;;;;;;29.92;4.10;;;14.10;99.90;;;;;;5058986;28;20080;-73
2023/01/01 04:23:00;;;;;;;21.88;3.25;;;14.20;99.90;;;;;;5076618;28;20488;-72
2023/01/01 04:25:26;;;;;;;21.35;3.65;;;14.10;99.90;;;;;;5076439;28;20098;-74
2023/01/01 04:27:52;;;;;;;25.45;4.00;;;14.10;99.90;;;;;;5058695;28;20098;-72
2023/01/01 04:30:18;;;;;;;20.23;4.22;;;14.10;99.90;;;;;;5075470;28;20501;-73
2023/01/01 04:32:44;;;;;;;15.75;3.38;;;14.10;99.90;;;;;;5074979;28;20044;-73
2023/01/01 04:35:11;;;;;;;20.08;3.75;;;14.00;99.90;;;;;;5092093;28;20044;-74
2023/01/01 04:37:39;;;;;;;20.85;3.35;;;14.00;99.90;;;;;;5075477;28;20059;-73
2023/01/01 04:40:06;;;;;;;15.40;3.22;;;14.00;99.90;;;;;;5076334;28;20392;-74
2023/01/01 04:42:31;;;;;;;18.13;3.08;;;14.10;99.90;;;;;;5057951;28;20048;-73
2023/01/01 04:44:57;;;;;;;19.77;3.40;;;14.00;99.90;;;;;;5042035;28;20048;-72
2023/01/01 04:47:25;;;;;;;16.98;2.30;;;14.10;99.90;;;;;;5076079;28;20044;-73
2023/01/01 04:49:51;;;;;;;16.80;3.08;;;14.10;99.90;;;;;;5075385;28;20088;-73
2023/01/01 04:52:17;;;;;;;16.53;3.17;;;14.20;99.90;;;;;;5059056;28;20126;-74
2023/01/01 04:54:43;;;;;;;20.98;2.78;;;14.10;99.90;;;;;;5057846;28;20437;-75
2023/01/01 04:57:09;;;;;;;29.95;2.78;;;14.10;99.90;;;;;;5075663;28;20048;-73
2023/01/01 04:59:35;;;;;;;17.63;3.25;;;14.10;99.90;;;;;;5075868;28;20081;-74
2023/01/01 05:02:00;;;;;;;18.95;2.95;;;14.00;99.90;;;;;;5075148;28;20048;-74
2023/01/01 05:04:26;;;;;;;12.52;2.40;;;13.90;99.90;;;;;;5041001;28;20064;-73
2023/01/01 05:06:52;;;;;;;19.58;2.88;;;14.00;99.90;;;;;;5075166;28;20045;-73
2023/01/01 05:09:18;;;;;;;17.10;2.15;;;14.00;99.90;;;;;;5074415;28;20127;-73
2023/01/01 05:11:44;;;;;;;12.20;2.00;;;13.90;99.90;;;;;;5058643;28;20170;-73
2023/01/01 05:14:09;;;;;;;14.23;2.17;;;14.00;99.90;;;;;;5075017;28;20044;-73
2023/01/01 05:16:37;;;;;;;13.10;1.98;;;14.00;99.90;;;;;;5057890;28;20049;-73
2023/01/01 05:19:04;;;;;;;11.55;1.52;;;13.90;99.90;;;;;;5057820;28;20049;-73
2023/01/01 05:21:36;;;;;;;18.55;1.92;;;13.90;99.90;;;;;;5076028;28;20389;-73
2023/01/01 05:24:05;;;;;;;14.52;2.08;;;13.80;99.90;;;;;;5076003;28;20057;-73
2023/01/01 05:26:33;;;;;;;9.13;1.60;;;13.70;99.90;;;;;;5075356;28;20048;-73
2023/01/01 05:29:00;;;;;;;15.15;1.83;;;13.70;99.90;;;;;;5073865;28;20520;-71
2023/01/01 05:31:28;;;;;;;10.27;1.10;;;13.70;99.90;;;;;;5057573;28;20124;-73
2023/01/01 05:33:56;;;;;;;11.65;1.20;;;13.70;99.90;;;;;;5075377;28;20047;-73
2023/01/01 05:36:30;;;;;;;7.32;0.90;;;13.70;99.90;;;;;;5074060;28;20128;-73
2023/01/01 05:38:56;;;;;;;13.95;1.42;;;13.70;99.90;;;;;;5075211;28;20055;-71
2023/01/01 05:41:23;;;;;;;7.47;1.20;;;13.60;99.90;;;;;;5075687;28;20036;-72
2023/01/01 05:43:50;;;;;;;19.00;1.20;;;13.60;99.90;;;;;;5075030;28;20048;-73
2023/01/01 05:46:17;;;;;;;;;;;13.60;99.90;;;;;;5074499;28;20044;-73
2023/01/01 05:48:43;;;;;;;10.15;1.80;;;13.50;99.90;;;;;;5073859;28;19927;-72
2023/01/01 05:51:16;;;;;;;15.30;1.20;;;13.50;99.90;;;;;;5108106;28;20105;-72
2023/01/01 05:53:43;;;;;;;7.47;1.17;;;13.40;99.90;;;;;;5057359;28;20348;-73
2023/01/01 05:56:11;;;;;;;;;;;13.40;99.90;;;;;;5057591;28;20048;-72
2023/01/01 05:58:36;;;;;;;7.95;0.82;;;13.30;99.90;;;;;;5075066;28;19924;-73
2023/01/01 06:01:27;;;;;;;8.38;1.08;;;13.20;99.90;;;;;;5073532;28;20501;-73
2023/01/01 06:03:54;;;;;;;9.15;1.20;;;13.20;99.90;;;;;;5068537;28;20198;-74
2023/01/01 06:06:23;;;;;;;19.73;1.35;;;13.20;99.90;;;;;;5074669;28;20040;-73
2023/01/01 06:08:50;;;;;;;9.57;1.17;;;13.10;99.90;;;;;;5074587;28;20048;-72
2023/01/01 06:11:16;;;;;;;9.02;1.67;;;13.10;99.90;;;;;;5056735;28;20111;-73
2023/01/01 06:13:42;;;;;;;14.73;1.10;;;13.10;99.90;;;;;;5039931;28;20173;-72
2023/01/01 06:16:09;;;;;;;10.25;1.42;;;13.10;99.90;;;;;;5074540;28;20066;-72
2023/01/01 06:18:35;;;;;;;9.90;1.13;;;13.10;99.90;;;;;;5073415;28;20123;-73
2023/01/01 06:21:12;;;;;;;10.75;1.27;;;13.10;99.90;;;;;;5074377;28;20087;-72
2023/01/01 06:23:38;;;;;;;;;;;13.10;99.90;;;;;;5073561;28;20083;-73
2023/01/01 06:26:04;;;;;;;14.30;1.33;;;13.10;99.90;;;;;;5074150;28;19928;-73
2023/01/01 06:28:30;;;;;;;15.70;1.70;;;13.00;99.90;;;;;;5073561;28;20052;-73
2023/01/01 06:31:00;;;;;;;13.98;1.65;;;13.00;99.90;;;;;;5072554;28;20104;-73
2023/01/01 06:33:26;;;;;;;16.85;1.67;;;12.90;99.90;;;;;;5073374;28;20044;-73
2023/01/01 06:35:51;;;;;;;18.50;2.05;;;12.90;99.90;;;;;;5056878;28;20048;-73
2023/01/01 06:38:17;;;;;;;14.90;1.55;;;12.90;99.90;;;;;;5072877;28;20043;-73
2023/01/01 06:40:43;;;;;;;6.88;1.30;;;12.80;99.90;;;;;;5073217;28;20056;-74
2023/01/01 06:43:08;;;;;;;12.65;1.65;;;12.80;99.90;;;;;;5073359;28;20070;-74
2023/01/01 06:45:34;;;;;;;13.93;1.38;;;12.80;99.90;;;;;;5072975;28;20053;-73
2023/01/01 06:48:00;;;;;;;22.35;3.08;;;12.90;99.90;;;;;;5072981;28;20158;-72
2023/01/01 06:50:25;;;;;;;11.82;1.05;;;12.80;99.90;;;;;;5072726;28;20036;-75
2023/01/01 06:52:51;;;;;;;14.00;1.23;;;12.80;99.90;;;;;;5056709;28;20040;-74
2023/01/01 06:55:17;;;;;;;17.20;1.10;;;12.80;99.90;;;;;;5039036;28;20060;-73
2023/01/01 06:57:43;;;;;;;13.57;1.40;;;12.80;99.90;;;;;;5072304;28;20058;-72
2023/01/01 07:00:09;;;;;;;14.98;1.27;;;12.80;99.90;;;;;;5055621;28;20056;-73
2023/01/01 07:02:34;;;;;;;18.13;1.27;;;12.80;99.90;;;;;;5090575;28;20053;-73
2023/01/01 07:05:00;;;;;;;15.05;1.27;;;12.80;99.90;;;;;;5073773;28;20045;-73
2023/01/01 07:07:26;;;;;;;15.80;1.80;;;12.70;99.90;;;;;;5073918;28;20051;-72
2023/01/01 07:09:52;;;;;;;16.83;1.77;;;12.70;99.90;;;;;;5056021;28;20496;-73
2023/01/01 07:12:17;;;;;;;15.30;1.42;;;12.70;99.90;;;;;;5072994;28;20049;-72
2023/01/01 07:14:43;;;;;;;11.75;1.10;;;12.70;99.90;;;;;;5056857;28;20139;-72
2023/01/01 07:17:09;;;;;;;22.38;1.92;;;12.70;99.90;;;;;;5072609;28;20136;-73
2023/01/01 07:19:34;;;;;;;15.98;1.20;;;12.70;99.90;;;;;;5056773;28;20040;-73
2023/01/01 07:22:00;;;;;;;19.85;1.10;;;12.70;99.90;;;;;;5106642;28;20048;-73
2023/01/01 07:24:26;;;;;;;15.10;1.50;;;12.70;99.90;;;;;;5072463;28;20210;-73
2023/01/01 07:26:52;;;;;;;11.88;1.05;;;12.70;99.90;;;;;;5055769;28;20044;-74
2023/01/01 07:29:17;;;;;;;14.13;1.13;;;12.70;99.90;;;;;;5073812;28;20048;-73
2023/01/01 07:31:44;;;;;;;11.27;1.10;;;12.60;99.90;;;;;;5055634;28;20389;-73
2023/01/01 07:34:18;;;;;;;9.93;1.10;;;12.70;99.90;;;;;;5072671;28;20059;-73
2023/01/01 07:36:44;;;;;;;13.13;1.15;;;12.60;99.90;;;;;;5073226;28;20047;-74
2023/01/01 07:39:10;;;;;;;26.40;1.95;;;12.60;99.90;;;;;;5073646;28;20384;-73
2023/01/01 07:41:36;;;;;;;10.35;1.17;;;12.50;99.90;;;;;;5072564;28;20032;-72
2023/01/01 07:44:02;;;;;;;13.45;1.00;;;12.50;99.90;;;;;;5059992;28;20231;-73
2023/01/01 07:46:28;;;;;;;14.32;1.10;;;12.50;99.90;;;;;;5079667;28;20446;-72
2023/01/01 07:48:55;;;;;;;17.15;1.35;;;12.50;99.90;;;;;;5081303;28;20121;-73
2023/01/01 07:51:21;;;;;;;14.30;1.00;;;12.50;99.90;;;;;;5080748;28;20061;-72
2023/01/01 07:53:47;;;;;;;12.57;1.10;;;12.50;99.90;;;;;;5063140;28;20163;-73
2023/01/01 07:56:12;;;;;;;13.50;1.13;;;12.50;99.90;;;;;;5094383;28;20128;-74
2023/01/01 07:58:39;;;;;;;17.33;1.65;;;12.50;99.90;;;;;;5076758;28;20136;-74
2023/01/01 08:01:05;;;;;;;19.58;1.33;;;12.50;99.90;;;;;;5059752;28;20056;-75
2023/01/01 08:03:31;;;;;;;28.48;4.13;;;12.40;99.90;;;;;;5059821;28;20052;-72
2023/01/01 08:05:56;;;;;;;19.67;2.45;;;12.50;99.90;;;;;;5044493;28;20102;-72
2023/01/01 08:08:22;;;;;;;15.38;1.40;;;12.30;99.90;;;;;;5079636;28;20048;-73
2023/01/01 08:10:48;;;;;;;20.17;1.85;;;12.40;99.90;;;;;;5079163;28;20317;-72
2023/01/01 08:13:14;;;;;;;20.50;1.92;;;12.40;99.90;;;;;;5081043;28;20083;-73
2023/01/01 08:15:39;;;;;;;20.55;1.55;;;12.40;99.90;;;;;;5080952;28;20053;-73
2023/01/01 08:18:05;;;;;;;18.35;1.02;;;12.40;99.90;;;;;;5081904;28;20056;-72
2023/01/01 08:20:32;;;;;;;19.40;1.33;;;12.30;99.90;;;;;;5082094;28;20461;-72
2023/01/01 08:22:58;;;;;;;21.00;1.15;;;12.20;99.90;;;;;;5079824;28;20041;-72
2023/01/01 08:25:24;;;;;;;22.02;1.33;;;12.20;99.90;;;;;;5080780;28;20067;-74
2023/01/01 08:27:50;;;;;;;19.95;2.03;;;12.20;99.90;;;;;;5062356;28;20400;-72
2023/01/01 08:30:16;;;;;;;21.13;2.45;;;12.20;99.90;;;;;;5078716;28;20048;-72
2023/01/01 08:32:42;;;;;;;19.05;1.13;;;12.10;99.90;;;;;;5044424;28;20052;-72
2023/01/01 08:35:08;;;;;;;14.52;1.63;;;12.20;99.90;;;;;;5077871;28;20501;-73
2023/01/01 08:37:34;;;;;;;14.88;0.70;;;12.10;99.90;;;;;;5077093;28;20040;-73
2023/01/01 08:39:59;;;;;;;17.38;2.15;;;12.10;99.90;;;;;;5076135;28;20051;-73
2023/01/01 08:42:25;;;;;;;19.10;1.15;;;12.10;99.90;;;;;;5077769;28;20051;-73
2023/01/01 08:44:51;;;;;;;21.40;1.50;;;12.00;99.90;;;;;;5059763;28;20396;-73
2023/01/01 08:47:22;;;;;;;23.40;1.92;;;12.00;99.90;;;;;;5076959;28;20412;-73
2023/01/01 08:49:49;;;;;;;18.55;1.50;;;12.00;99.90;;;;;;5059714;28;20044;-72
2023/01/01 08:52:15;;;;;;;17.13;1.00;;;12.00;99.90;;;;;;5076300;28;20084;-72
2023/01/01 08:54:41;;;;;;;17.97;1.57;;;12.00;99.90;;;;;;5077684;28;20330;-74
2023/01/01 08:57:07;;;;;;;14.10;1.02;;;11.90;99.90;;;;;;5079288;28;20306;-73
2023/01/01 08:59:33;;;;;;;10.68;1.08;;;11.90;99.90;;;;;;5079641;28;20059;-72
2023/01/01 09:01:58;;;;;;;19.65;1.30;;;11.90;99.90;;;;;;5078117;28;20080;-72
2023/01/01 09:04:25;;;;;;;19.42;1.33;;;11.90;99.90;;;;;;5079189;28;20044;-73
2023/01/01 09:06:51;;;;;;;19.48;1.23;;;12.00;99.90;;;;;;5078725;28;20123;-73
2023/01/01 09:09:16;;;;;;;19.63;1.33;;;12.00;99.90;;;;;;5079820;28;20133;-74
2023/01/01 09:11:54;;;;;;;24.33;2.03;;;12.00;99.90;;;;;;5078217;28;20068;-73
2023/01/01 09:14:20;;;;;;;20.45;1.73;;;12.00;99.90;;;;;;5076460;28;20074;-73
2023/01/01 09:16:47;;;;;;;18.77;1.67;;;12.00;99.90;;;;;;5075759;28;20052;-73
2023/01/01 09:19:12;;;;;;;20.50;2.30;;;12.00;99.90;;;;;;5059267;28;20079;-74
2023/01/01 09:21:38;;;;;;;18.08;1.38;;;12.00;99.90;;;;;;5075099;28;20102;-72
2023/01/01 09:24:04;;;;;;;12.55;0.68;;;12.00;99.90;;;;;;5076730;28;20045;-73
2023/01/01 09:26:30;;;;;;;17.02;0.90;;;12.00;99.90;;;;;;5075068;28;20044;-74
2023/01/01 09:28:57;;;;;;;23.92;2.33;;;12.10;99.90;;;;;;5075724;28;20501;-73
2023/01/01 09:31:23;;;;;;;19.73;1.63;;;12.00;99.90;;;;;;5075886;28;20377;-73
2023/01/01 09:33:49;;;;;;;15.68;1.17;;;12.00;99.90;;;;;;5075930;28;20087;-73
2023/01/01 09:36:18;;;;;;;21.45;1.38;;;12.10;99.90;;;;;;5074884;28;20049;-72
2023/01/01 09:38:48;;;;;;;20.48;1.40;;;12.10;99.90;;;;;;5076589;28;20052;-73
2023/01/01 09:41:46;;;;;;;16.08;1.08;;;12.10;99.90;;;;;;5074808;28;20052;-73
2023/01/01 09:44:31;;;;;;;20.33;1.55;;;12.10;99.90;;;;;;5058573;28;20095;-72
2023/01/01 09:47:04;;;;;;;22.55;2.00;;;12.10;99.90;;;;;;5075689;28;20121;-73
2023/01/01 09:49:43;;;;;;;20.05;1.45;;;12.20;99.90;;;;;;5075054;28;20047;-73
2023/01/01 09:52:13;;;;;;;16.80;1.08;;;12.30;99.90;;;;;;5074955;28;20051;-74
2023/01/01 09:54:47;;;;;;;19.50;1.10;;;12.30;99.90;;;;;;5057414;28;20441;-74
2023/01/01 09:57:16;;;;;;;19.60;0.88;;;12.20;99.90;;;;;;5057427;28;20080;-73
2023/01/01 09:59:42;;;;;;;17.48;1.25;;;12.20;99.90;;;;;;5074718;28;20139;-74
2023/01/01 10:02:20;;;;;;;22.85;1.40;;;12.30;99.90;;;;;;5074113;28;20162;-73
2023/01/01 10:04:56;;;;;;;21.95;1.35;;;12.20;99.90;;;;;;5074810;28;20086;-72
2023/01/01 10:07:34;;;;;;;23.80;1.35;;;12.20;99.90;;;;;;5073887;28;20049;-73
2023/01/01 10:10:11;;;;;;;18.58;1.00;;;12.10;99.90;;;;;;5073584;28;20388;-72
2023/01/01 10:12:59;;;;;;;18.77;1.10;;;12.10;99.90;;;;;;5057460;28;20094;-73
2023/01/01 10:15:30;;;;;;;18.88;1.13;;;12.10;99.90;;;;;;5074218;28;20040;-73
2023/01/01 10:18:03;;;;;;;16.92;0.90;;;12.10;99.90;;;;;;5073631;28;20041;-73
2023/01/01 10:20:35;;;;;;;18.27;1.08;;;12.10;99.90;;;;;;5074252;28;20064;-72
2023/01/01 10:23:11;;;;;;;11.13;1.02;;;12.10;99.90;;;;;;5073397;28;20047;-73
2023/01/01 10:25:39;;;;;;;22.85;1.77;;;11.90;99.90;;;;;;5073323;28;20059;-73
2023/01/01 10:28:14;;;;;;;27.05;1.42;;;11.90;99.90;;;;;;5073906;28;20045;-72
2023/01/01 10:30:41;;;;;;;24.73;1.30;;;12.00;99.90;;;;;;5056725;28;20056;-72
2023/01/01 10:33:13;;;;;;;24.92;1.17;;;12.10;99.90;;;;;;5074874;28;20080;-74
2023/01/01 10:35:45;;;;;;;10.50;1.00;;;12.10;99.90;;;;;;5072855;28;20087;-72
2023/01/01 10:38:22;;;;;;;16.88;1.10;;;12.20;99.90;;;;;;5072976;28;20131;-72
2023/01/01 10:40:50;;;;;;;26.10;1.30;;;12.30;99.90;;;;;;5074804;28;20052;-72
2023/01/01 10:43:16;;;;;;;18.58;1.08;;;12.30;99.90;;;;;;5056361;28;20052;-73
2023/01/01 10:45:53;;;;;;;22.50;1.58;;;12.30;99.90;;;;;;5056317;28;20086;-74
2023/01/01 10:48:20;;;;;;;26.60;1.70;;;12.30;99.90;;;;;;5073435;28;20503;-74
2023/01/01 10:50:52;;;;;;;20.92;1.30;;;12.30;99.90;;;;;;5073869;28;20106;-73
2023/01/01 10:53:26;;;;;;;17.50;1.63;;;12.30;99.90;;;;;;5072837;28;20056;-72
2023/01/01 10:56:14;;;;;;;25.35;2.67;;;12.30;99.90;;;;;;5073510;28;20080;-73
2023/01/01 10:58:42;;;;;;;17.25;1.63;;;12.30;99.90;;;;;;5074260;28;20133;-73
2023/01/01 11:01:30;;;;;;;21.20;1.50;;;12.30;99.90;;;;;;5073581;28;20040;-72
2023/01/01 11:04:14;;;;;;;19.27;1.30;;;12.40;99.90;;;;;;5073240;28;20056;-73
2023/01/01 11:06:42;;;;;;;28.17;1.38;;;12.40;99.90;;;;;;5072496;28;20055;-72
2023/01/01 11:09:35;;;;;;;28.33;2.17;;;12.50;99.90;;;;;;5073196;28;20449;-73
2023/01/01 11:12:03;;;;;;;16.83;1.33;;;12.60;99.90;;;;;;5073443;28;20047;-74
2023/01/01 11:15:02;;;;;;;17.92;1.73;;;12.80;99.90;;;;;;5072564;28;20093;-74
2023/01/01 11:17:33;;;;;;;11.52;1.17;;;12.80;99.90;;;;;;5061200;28;20143;-73
2023/01/01 11:20:01;;;;;;;24.83;1.48;;;13.00;99.90;;;;;;5074220;28;20381;-73
2023/01/01 11:22:39;;;;;;;19.63;1.48;;;12.90;99.90;;;;;;5056327;28;20074;-73
2023/01/01 11:25:17;;;;;;;20.70;1.98;;;13.00;99.90;;;;;;5072325;28;20098;-74
2023/01/01 11:27:43;;;;;;;24.92;1.52;;;13.10;99.90;;;;;;5073055;28;20056;-73
2023/01/01 11:30:26;;;;;;;18.05;1.05;;;13.10;99.90;;;;;;5072088;28;20048;-72
2023/01/01 11:32:58;;;;;;;29.17;1.75;;;13.20;99.90;;;;;;5073197;28;20048;-73
2023/01/01 11:35:27;;;;;;;20.98;1.50;;;13.10;99.90;;;;;;5072269;28;20106;-73
2023/01/01 11:37:54;;;;;;;20.25;2.38;;;13.20;99.90;;;;;;5073491;28;20076;-73
2023/01/01 11:40:26;;;;;;;26.70;1.40;;;13.10;99.90;;;;;;5073078;28;20048;-73
2023/01/01 11:42:58;;;;;;;20.48;1.67;;;13.10;99.90;;;;;;5055775;28;20044;-72
2023/01/01 11:45:30;;;;;;;26.20;1.67;;;13.10;99.90;;;;;;5072413;28;20048;-72
2023/01/01 11:48:01;;;;;;;17.60;0.95;;;13.10;99.90;;;;;;5071942;28;20045;-73
2023/01/01 11:50:38;;;;;;;17.88;1.20;;;13.10;99.90;;;;;;5056071;28;20052;-75
2023/01/01 11:53:22;;;;;;;;;;;13.10;99.90;;;;;;5072297;28;20618;-72
2023/01/01 11:56:00;;;;;;;21.00;1.48;;;13.00;99.90;;;;;;5073562;28;20057;-73
2023/01/01 11:58:49;;;;;;;21.10;1.75;;;13.00;99.90;;;;;;5055580;28;20485;-74
2023/01/01 12:01:30;;;;;;;20.42;1.73;;;13.00;99.90;;;;;;5073670;28;20540;-74
2023/01/01 12:04:12;;;;;;;23.75;2.08;;;13.10;99.90;;;;;;5056080;28;20064;-73
2023/01/01 12:06:46;;;;;;;23.73;1.80;;;13.10;99.90;;;;;;5090836;28;20123;-73
2023/01/01 12:09:15;;;;;;;23.00;1.52;;;13.00;99.90;;;;;;5072676;28;20481;-73
2023/01/01 12:11:47;;;;;;;25.52;1.70;;;12.90;99.90;;;;;;5071249;28;20044;-73
2023/01/01 12:14:21;;;;;;;20.33;1.45;;;12.90;99.90;;;;;;5072969;28;20087;-73
2023/01/01 12:17:25;;;;;;;22.67;1.42;;;12.80;99.90;;;;;;5072718;28;20517;-73
2023/01/01 12:20:22;;;;;;;24.63;1.27;;;12.70;99.90;;;;;;5072707;28;20115;-73
2023/01/01 12:22:47;;;;;;;24.05;1.92;;;12.70;99.90;;;;;;5071829;28;20040;-73
2023/01/01 12:25:17;;;;;;;25.77;1.27;;;12.70;99.90;;;;;;5071861;28;20530;-73
2023/01/01 12:28:07;;;;;;;21.98;1.80;;;12.70;99.90;;;;;;5072737;28;20048;-73
2023/01/01 12:30:41;;;;;;;20.52;1.17;;;12.70;99.90;;;;;;5076156;28;20050;-74
2023/01/01 12:33:25;;;;;;;21.38;1.52;;;12.70;99.90;;;;;;5075459;28;20054;-74
2023/01/01 12:35:56;;;;;;;15.05;1.02;;;12.80;99.90;;;;;;5075918;28;20127;-72
2023/01/01 12:39:05;;;;;;;24.90;1.75;;;12.70;99.90;;;;;;5076731;28;20048;-74
2023/01/01 12:41:46;;;;;;;26.60;1.98;;;12.70;99.90;;;;;;5076216;28;20124;-74
2023/01/01 12:44:25;;;;;;;18.92;2.35;;;12.70;99.90;;;;;;5109635;28;20060;-73
2023/01/01 12:47:09;;;;;;;24.73;2.15;;;12.70;99.90;;;;;;5076019;28;20044;-74
2023/01/01 12:49:35;;;;;;;21.15;1.77;;;12.60;99.90;;;;;;5076663;28;20044;-74
2023/01/01 12:52:43;;;;;;;19.70;1.38;;;12.60;99.90;;;;;;5074871;28;20041;-74
2023/01/01 12:55:38;;;;;;;27.27;2.60;;;12.60;99.90;;;;;;5065123;28;20048;-73
2023/01/01 12:58:09;;;;;;;25.40;2.97;;;12.60;99.90;;;;;;5075024;28;20045;-73